createdAt,value
2022-09-10T00:00:48.464Z,0.80
2022-09-10T00:03:17.763Z,0.60
2022-09-10T00:05:47.261Z,0.60
2022-09-10T00:08:16.553Z,0.60
2022-09-10T00:10:46.634Z,0.60
2022-09-10T00:13:15.934Z,0.80
2022-09-10T00:15:45.974Z,0.60
2022-09-10T00:18:15.772Z,0.50
2022-09-10T00:20:47.810Z,0.60
2022-09-10T00:23:16.413Z,0.60
2022-09-10T00:25:44.864Z,0.90
2022-09-10T00:28:12.956Z,0.70
2022-09-10T00:30:42.061Z,0.50
2022-09-10T00:33:09.986Z,0.70
2022-09-10T00:35:39.589Z,0.60
2022-09-10T00:38:09.013Z,0.67
2022-09-10T00:40:37.905Z,0.67
2022-09-10T00:43:12.588Z,0.60
2022-09-10T00:45:41.027Z,0.73
2022-09-10T00:48:15.994Z,0.73
2022-09-10T00:50:46.886Z,0.90
2022-09-10T00:53:19.472Z,0.67
2022-09-10T00:55:50.554Z,0.60
2022-09-10T00:58:20.414Z,0.93
2022-09-10T01:00:48.575Z,0.60
2022-09-10T01:03:22.434Z,0.80
2022-09-10T01:05:53.169Z,0.70
2022-09-10T01:08:22.393Z,0.70
2022-09-10T01:11:03.341Z,0.70
2022-09-10T01:13:46.129Z,0.80
2022-09-10T01:16:22.368Z,0.50
2022-09-10T01:18:59.286Z,0.53
2022-09-10T01:21:33.417Z,0.70
2022-09-10T01:24:30.470Z,0.70
2022-09-10T01:27:31.000Z,0.60
2022-09-10T01:30:05.052Z,0.53
2022-09-10T01:32:37.377Z,0.60
2022-09-10T01:35:14.458Z,0.70
2022-09-10T01:37:46.249Z,0.70
2022-09-10T01:40:15.319Z,0.70
2022-09-10T01:42:43.175Z,0.67
2022-09-10T01:45:15.540Z,0.80
2022-09-10T01:48:08.890Z,0.63
2022-09-10T01:50:45.821Z,0.70
2022-09-10T01:53:41.985Z,0.60
2022-09-10T01:56:25.297Z,0.63
2022-09-10T01:58:57.133Z,0.70
2022-09-10T02:01:30.095Z,0.60
2022-09-10T02:04:00.688Z,0.60
2022-09-10T02:06:31.012Z,0.80
2022-09-10T02:09:00.276Z,0.70
2022-09-10T02:11:28.110Z,0.80
2022-09-10T02:13:55.992Z,0.80
2022-09-10T02:16:30.981Z,0.70
2022-09-10T02:19:01.209Z,0.80
2022-09-10T02:21:29.424Z,0.70
2022-09-10T02:24:00.160Z,0.93
2022-09-10T02:26:27.993Z,1.00
2022-09-10T02:28:55.826Z,0.70
2022-09-10T02:31:23.928Z,1.00
2022-09-10T02:33:54.453Z,1.00
2022-09-10T02:36:26.075Z,0.80
2022-09-10T02:38:56.697Z,0.70
2022-09-10T02:41:25.317Z,0.70
2022-09-10T02:43:53.172Z,0.83
2022-09-10T02:46:21.345Z,0.60
2022-09-10T02:48:49.144Z,0.70
2022-09-10T02:51:18.356Z,0.60
2022-09-10T02:53:46.085Z,0.80
2022-09-10T02:56:13.837Z,0.87
2022-09-10T02:58:41.592Z,0.60
2022-09-10T03:01:11.200Z,0.60
2022-09-10T03:03:39.409Z,0.70
2022-09-10T03:06:07.986Z,0.63
2022-09-10T03:08:37.635Z,0.60
2022-09-10T03:11:07.043Z,0.80
2022-09-10T03:13:35.465Z,0.87
2022-09-10T03:16:04.507Z,1.00
2022-09-10T03:18:32.541Z,0.80
2022-09-10T03:21:10.186Z,0.63
2022-09-10T03:23:40.422Z,0.77
2022-09-10T03:26:09.597Z,0.50
2022-09-10T03:28:38.545Z,0.80
2022-09-10T03:31:06.615Z,0.63
2022-09-10T03:33:34.665Z,0.80
2022-09-10T03:36:03.544Z,0.80
2022-09-10T03:38:32.057Z,0.90
2022-09-10T03:41:02.924Z,0.57
2022-09-10T03:43:30.883Z,0.90
2022-09-10T03:45:58.695Z,0.70
2022-09-10T03:48:26.477Z,0.77
2022-09-10T03:50:54.665Z,0.80
2022-09-10T03:53:22.644Z,1.23
2022-09-10T03:55:51.850Z,0.70
2022-09-10T03:58:20.908Z,0.70
2022-09-10T04:00:48.703Z,0.80
2022-09-10T04:03:16.477Z,0.80
2022-09-10T04:05:44.475Z,0.70
2022-09-10T04:08:12.716Z,0.83
2022-09-10T04:10:41.040Z,0.80
2022-09-10T04:13:09.145Z,0.90
2022-09-10T04:15:38.471Z,0.80
2022-09-10T04:18:06.925Z,0.70
2022-09-10T04:20:34.793Z,0.60
2022-09-10T04:23:02.881Z,0.70
2022-09-10T04:25:30.772Z,0.80
2022-09-10T04:27:58.752Z,0.90
2022-09-10T04:30:26.514Z,0.70
2022-09-10T04:32:55.681Z,0.90
2022-09-10T04:35:23.433Z,0.90
2022-09-10T04:37:51.165Z,0.80
2022-09-10T04:40:20.010Z,0.73
2022-09-10T04:42:47.734Z,0.73
2022-09-10T04:45:15.525Z,0.60
2022-09-10T04:47:43.276Z,0.77
2022-09-10T04:50:12.493Z,0.80
2022-09-10T04:52:40.205Z,0.80
2022-09-10T04:55:08.957Z,0.70
2022-09-10T04:57:36.731Z,0.70
2022-09-10T05:00:06.257Z,0.70
2022-09-10T05:02:34.306Z,0.50
2022-09-10T05:05:02.025Z,0.77
2022-09-10T05:07:31.155Z,0.70
2022-09-10T05:09:58.893Z,0.63
2022-09-10T05:12:26.681Z,0.77
2022-09-10T05:14:54.985Z,0.70
2022-09-10T05:17:22.704Z,0.50
2022-09-10T05:19:50.414Z,0.90
2022-09-10T05:22:18.149Z,0.60
2022-09-10T05:24:47.268Z,0.63
2022-09-10T05:27:16.026Z,0.70
2022-09-10T05:29:43.932Z,0.70
2022-09-10T05:32:11.674Z,0.50
2022-09-10T05:34:39.694Z,0.60
2022-09-10T05:37:08.646Z,0.60
2022-09-10T05:39:36.406Z,0.73
2022-09-10T05:42:07.138Z,0.60
2022-09-10T05:44:35.580Z,0.63
2022-09-10T05:47:03.330Z,0.87
2022-09-10T05:49:31.109Z,0.80
2022-09-10T05:51:58.953Z,0.60
2022-09-10T05:54:26.756Z,0.67
2022-09-10T05:56:54.488Z,0.60
2022-09-10T05:59:23.544Z,0.63
2022-09-10T06:01:52.108Z,1.03
2022-09-10T06:04:20.050Z,0.60
2022-09-10T06:06:48.153Z,0.60
2022-09-10T06:09:15.966Z,0.73
2022-09-10T06:11:43.867Z,0.67
2022-09-10T06:14:13.712Z,0.60
2022-09-10T06:16:43.012Z,0.60
2022-09-10T06:19:10.917Z,0.43
2022-09-10T06:21:39.292Z,0.50
2022-09-10T06:24:07.205Z,0.63
2022-09-10T06:26:34.980Z,0.43
2022-09-10T06:29:03.383Z,0.50
2022-09-10T06:31:31.105Z,0.50
2022-09-10T06:34:00.181Z,0.40
2022-09-10T06:36:28.529Z,0.60
2022-09-10T06:38:57.605Z,0.50
2022-09-10T06:41:25.637Z,0.60
2022-09-10T06:43:53.392Z,0.60
2022-09-10T06:49:12.213Z,0.60
2022-09-10T06:51:40.420Z,0.50
2022-09-10T06:54:08.661Z,0.60
2022-09-10T06:56:36.447Z,0.63
2022-09-10T06:59:04.269Z,0.50
2022-09-10T07:01:32.051Z,0.70
2022-09-10T07:04:01.220Z,0.53
2022-09-10T07:06:34.708Z,0.60
2022-09-10T07:09:02.577Z,0.70
2022-09-10T07:11:31.992Z,0.67
2022-09-10T07:14:01.273Z,0.80
2022-09-10T07:16:29.922Z,0.67
2022-09-10T07:18:59.159Z,0.80
2022-09-10T07:21:28.821Z,0.70
2022-09-10T07:24:01.071Z,0.80
2022-09-10T07:26:29.595Z,0.70
2022-09-10T07:28:58.424Z,0.60
2022-09-10T07:31:29.417Z,0.60
2022-09-10T07:33:57.985Z,0.70
2022-09-10T07:36:26.411Z,0.80
2022-09-10T07:38:55.225Z,0.60
2022-09-10T07:41:27.963Z,0.50
2022-09-10T07:43:55.902Z,0.67
2022-09-10T07:46:25.400Z,0.77
2022-09-10T07:48:55.546Z,0.70
2022-09-10T07:51:24.269Z,0.50
2022-09-10T07:53:55.032Z,0.40
2022-09-10T07:56:24.169Z,0.77
2022-09-10T07:58:52.713Z,0.70
2022-09-10T08:01:20.986Z,0.60
2022-09-10T08:03:48.913Z,0.53
2022-09-10T08:06:17.038Z,0.93
2022-09-10T08:08:44.808Z,0.53
2022-09-10T08:11:16.081Z,0.60
2022-09-10T08:13:48.177Z,0.60
2022-09-10T08:16:18.839Z,0.50
2022-09-10T08:18:47.634Z,0.90
2022-09-10T08:21:16.166Z,0.60
2022-09-10T08:23:48.609Z,0.50
2022-09-10T08:26:16.328Z,0.67
2022-09-10T08:28:45.470Z,0.60
2022-09-10T08:31:13.916Z,0.50
2022-09-10T08:33:41.718Z,0.70
2022-09-10T08:36:11.906Z,0.60
2022-09-10T08:38:40.898Z,0.63
2022-09-10T08:41:13.648Z,0.60
2022-09-10T08:43:49.443Z,0.50
2022-09-10T08:46:23.160Z,1.00
2022-09-10T08:49:00.488Z,0.73
2022-09-10T08:51:30.952Z,1.40
2022-09-10T08:54:03.436Z,1.10
2022-09-10T08:56:32.396Z,0.70
2022-09-10T08:59:04.022Z,0.70
2022-09-10T09:01:35.764Z,0.90
2022-09-10T09:04:10.585Z,0.57
2022-09-10T09:06:43.502Z,0.70
2022-09-10T09:09:15.867Z,1.03
2022-09-10T09:11:53.067Z,0.83
2022-09-10T09:14:46.928Z,0.80
2022-09-10T09:17:33.964Z,0.77
2022-09-10T09:20:11.445Z,0.60
2022-09-10T09:22:47.584Z,0.80
2022-09-10T09:25:23.713Z,0.53
2022-09-10T09:27:55.557Z,0.67
2022-09-10T09:30:28.136Z,1.00
2022-09-10T09:32:58.256Z,0.70
2022-09-10T09:35:32.180Z,0.93
2022-09-10T09:38:16.277Z,0.80
2022-09-10T09:40:48.435Z,0.70
2022-09-10T09:43:23.975Z,0.83
2022-09-10T09:45:54.351Z,0.60
2022-09-10T09:48:24.378Z,0.60
2022-09-10T09:50:56.276Z,0.60
2022-09-10T09:53:26.280Z,0.60
2022-09-10T09:55:56.324Z,0.60
2022-09-10T09:58:35.274Z,0.63
2022-09-10T10:01:17.591Z,0.60
2022-09-10T10:03:54.980Z,1.23
2022-09-10T10:06:25.361Z,0.80
2022-09-10T10:08:59.501Z,0.73
2022-09-10T10:11:50.276Z,0.60
2022-09-10T10:14:27.085Z,0.80
2022-09-10T10:17:00.391Z,0.90
2022-09-10T10:19:32.574Z,0.80
2022-09-10T10:22:21.809Z,0.77
2022-09-10T10:24:52.471Z,0.83
2022-09-10T10:27:26.221Z,0.77
2022-09-10T10:29:55.925Z,0.63
2022-09-10T10:32:32.406Z,1.00
2022-09-10T10:35:14.041Z,0.70
2022-09-10T10:37:56.651Z,0.80
2022-09-10T10:40:30.632Z,0.87
2022-09-10T10:43:10.381Z,0.90
2022-09-10T10:45:48.985Z,0.60
2022-09-10T10:48:27.048Z,0.73
2022-09-10T10:50:59.505Z,0.50
2022-09-10T10:53:38.144Z,0.80
2022-09-10T10:56:13.000Z,0.93
2022-09-10T10:58:56.774Z,1.00
2022-09-10T11:01:26.413Z,0.60
2022-09-10T11:04:04.812Z,0.50
2022-09-10T11:06:38.814Z,0.90
2022-09-10T11:09:13.473Z,0.90
2022-09-10T11:11:56.137Z,1.10
2022-09-10T11:14:29.819Z,1.27
2022-09-10T11:17:02.984Z,0.90
2022-09-10T11:19:38.193Z,0.97
2022-09-10T11:22:14.622Z,0.83
2022-09-10T11:24:46.540Z,0.90
2022-09-10T11:27:17.248Z,0.80
2022-09-10T11:29:52.863Z,1.03
2022-09-10T11:32:30.465Z,1.07
2022-09-10T11:35:06.932Z,1.27
2022-09-10T11:37:50.913Z,1.23
2022-09-10T11:40:24.485Z,0.80
2022-09-10T11:42:56.385Z,0.80
2022-09-10T11:45:32.197Z,0.90
2022-09-10T11:48:06.865Z,1.00
2022-09-10T11:50:42.076Z,0.83
2022-09-10T11:53:16.028Z,1.10
2022-09-10T11:55:57.653Z,1.23
2022-09-10T11:58:36.925Z,0.93
2022-09-10T12:01:16.765Z,1.37
2022-09-10T12:04:44.623Z,1.20
2022-09-10T12:07:26.133Z,0.83
2022-09-10T12:10:11.047Z,0.90
2022-09-10T12:12:43.812Z,0.87
2022-09-10T12:15:19.641Z,0.90
2022-09-10T12:17:51.616Z,1.23
2022-09-10T12:20:22.209Z,0.70
2022-09-10T12:22:55.719Z,1.00
2022-09-10T12:25:33.838Z,1.10
2022-09-10T12:28:05.307Z,0.80
2022-09-10T12:31:02.634Z,0.90
2022-09-10T12:33:59.269Z,1.00
2022-09-10T12:37:15.753Z,1.00
2022-09-10T12:39:45.577Z,1.10
2022-09-10T12:42:31.692Z,1.10
2022-09-10T12:44:59.917Z,1.10
2022-09-10T12:47:50.124Z,1.10
2022-09-10T12:50:46.106Z,0.90
2022-09-10T12:53:33.068Z,1.00
2022-09-10T12:56:15.610Z,0.80
2022-09-10T12:58:58.893Z,0.73
2022-09-10T13:01:40.239Z,0.80
2022-09-10T13:04:24.346Z,0.80
2022-09-10T13:06:54.837Z,0.70
2022-09-10T13:09:26.400Z,0.67
2022-09-10T13:11:59.830Z,0.80
2022-09-10T13:14:31.997Z,0.60
2022-09-10T13:16:59.761Z,0.67
2022-09-10T13:19:50.959Z,0.80
2022-09-10T13:22:49.342Z,0.60
2022-09-10T13:25:34.769Z,0.80
2022-09-10T13:28:24.853Z,0.73
2022-09-10T13:31:01.961Z,0.70
2022-09-10T13:33:33.158Z,0.70
2022-09-10T13:36:16.528Z,0.67
2022-09-10T13:39:03.281Z,0.80
2022-09-10T13:41:57.317Z,0.57
2022-09-10T13:44:53.965Z,0.60
2022-09-10T13:47:25.519Z,0.50
2022-09-10T13:49:57.228Z,0.60
2022-09-10T13:52:29.781Z,0.60
2022-09-10T13:54:59.253Z,0.77
2022-09-10T13:57:29.344Z,0.60
2022-09-10T14:00:06.349Z,0.70
2022-09-10T14:02:44.832Z,0.50
2022-09-10T14:05:34.529Z,0.73
2022-09-10T14:08:07.101Z,0.60
2022-09-10T14:10:48.504Z,0.70
2022-09-10T14:13:19.984Z,0.60
2022-09-10T14:15:52.060Z,0.77
2022-09-10T14:18:21.005Z,0.70
2022-09-10T14:20:49.153Z,0.50
2022-09-10T14:23:18.660Z,0.63
2022-09-10T14:25:46.833Z,0.40
2022-09-10T14:28:26.823Z,0.50
2022-09-10T14:31:20.408Z,0.60
2022-09-10T14:33:48.320Z,0.80
2022-09-10T14:36:19.046Z,0.63
2022-09-10T14:38:55.562Z,0.63
2022-09-10T14:41:25.813Z,0.57
2022-09-10T14:44:15.552Z,0.73
2022-09-10T14:46:51.287Z,0.63
2022-09-10T14:49:20.482Z,0.60
2022-09-10T14:51:48.215Z,0.40
2022-09-10T14:54:15.949Z,0.70
2022-09-10T14:56:46.072Z,0.67
2022-09-10T14:59:16.442Z,0.70
2022-09-10T15:01:48.027Z,0.60
2022-09-10T15:04:19.395Z,0.50
2022-09-10T15:06:47.145Z,0.60
2022-09-10T15:09:15.715Z,0.60
2022-09-10T15:11:50.369Z,0.50
2022-09-10T15:14:19.230Z,0.63
2022-09-10T15:16:46.987Z,0.50
2022-09-10T15:19:15.184Z,0.60
2022-09-10T15:21:44.290Z,0.57
2022-09-10T15:24:14.917Z,0.50
2022-09-10T15:26:43.373Z,0.40
2022-09-10T15:29:11.421Z,0.40
2022-09-10T15:31:39.665Z,0.50
2022-09-10T15:34:08.889Z,0.50
2022-09-10T15:36:38.474Z,0.60
2022-09-10T15:39:09.033Z,1.00
2022-09-10T15:41:41.569Z,0.77
2022-09-10T15:44:09.303Z,0.80
2022-09-10T15:46:40.698Z,0.60
2022-09-10T15:49:09.039Z,0.60
2022-09-10T15:51:36.777Z,0.57
2022-09-10T15:54:06.069Z,0.70
2022-09-10T15:56:36.541Z,0.90
2022-09-10T15:59:06.410Z,0.60
2022-09-10T16:01:38.155Z,0.53
2022-09-10T16:04:06.456Z,0.67
2022-09-10T16:06:36.144Z,0.63
2022-09-10T16:09:07.092Z,0.67
2022-09-10T16:11:38.436Z,0.80
2022-09-10T16:14:08.446Z,0.90
2022-09-10T16:16:37.147Z,0.80
2022-09-10T16:19:06.326Z,0.80
2022-09-10T16:21:37.965Z,1.03
2022-09-10T16:24:06.965Z,0.90
2022-09-10T16:26:37.839Z,0.90
2022-09-10T16:29:07.508Z,1.20
2022-09-10T16:31:36.537Z,0.90
2022-09-10T16:34:06.680Z,0.77
2022-09-10T16:36:37.060Z,1.13
2022-09-10T16:39:11.755Z,0.80
2022-09-10T16:41:42.029Z,0.93
2022-09-10T16:44:10.938Z,1.23
2022-09-10T16:46:39.393Z,1.47
2022-09-10T16:49:08.441Z,1.23
2022-09-10T16:51:36.559Z,1.10
2022-09-10T16:54:06.796Z,0.80
2022-09-10T16:56:37.772Z,1.30
2022-09-10T16:59:08.721Z,0.63
2022-09-10T17:01:36.527Z,0.70
2022-09-10T17:04:05.161Z,0.87
2022-09-10T17:06:32.956Z,0.90
2022-09-10T17:09:01.997Z,1.10
2022-09-10T17:11:32.280Z,0.90
2022-09-10T17:14:02.445Z,1.20
2022-09-10T17:16:33.408Z,0.80
2022-09-10T17:19:03.140Z,0.90
2022-09-10T17:21:34.420Z,0.80
2022-09-10T17:24:04.409Z,0.80
2022-09-10T17:26:33.207Z,0.90
2022-09-10T17:29:02.688Z,0.73
2022-09-10T17:31:32.236Z,0.80
2022-09-10T17:34:00.837Z,0.90
2022-09-10T17:36:29.197Z,0.70
2022-09-10T17:38:58.898Z,0.83
2022-09-10T17:41:28.827Z,0.80
2022-09-10T17:43:56.880Z,1.03
2022-09-10T17:46:24.738Z,0.80
2022-09-10T17:48:55.166Z,1.00
2022-09-10T17:51:26.123Z,0.70
2022-09-10T17:53:55.752Z,1.00
2022-09-10T17:56:25.232Z,0.80
2022-09-10T17:58:57.039Z,1.10
2022-09-10T18:01:26.794Z,0.90
2022-09-10T18:03:56.466Z,1.10
2022-09-10T18:06:25.350Z,1.27
2022-09-10T18:08:53.581Z,1.33
2022-09-10T18:11:24.132Z,1.17
2022-09-10T18:13:53.344Z,1.30
2022-09-10T18:16:24.226Z,1.20
2022-09-10T18:18:55.424Z,1.20
2022-09-10T18:21:26.940Z,1.30
2022-09-10T18:23:57.213Z,1.23
2022-09-10T18:26:27.297Z,0.87
2022-09-10T18:28:57.293Z,0.90
2022-09-10T18:31:26.193Z,0.80
2022-09-10T18:33:55.626Z,0.80
2022-09-10T18:36:25.957Z,1.00
2022-09-10T18:38:53.788Z,0.77
2022-09-10T18:41:24.075Z,0.80
2022-09-10T18:43:54.044Z,0.90
2022-09-10T18:46:23.393Z,0.83
2022-09-10T18:48:51.657Z,1.03
2022-09-10T18:51:21.865Z,0.90
2022-09-10T18:53:53.822Z,0.87
2022-09-10T18:56:24.092Z,1.23
2022-09-10T18:58:53.338Z,0.80
2022-09-10T19:01:21.659Z,0.80
2022-09-10T19:03:50.446Z,0.70
2022-09-10T19:06:19.788Z,0.77
2022-09-10T19:08:50.052Z,0.77
2022-09-10T19:11:18.876Z,0.77
2022-09-10T19:13:49.984Z,0.80
2022-09-10T19:16:18.294Z,0.90
2022-09-10T19:18:50.787Z,0.80
2022-09-10T19:21:20.052Z,1.00
2022-09-10T19:23:50.421Z,0.70
2022-09-10T19:26:19.400Z,0.80
2022-09-10T19:28:47.737Z,0.93
2022-09-10T19:31:17.837Z,0.70
2022-09-10T19:33:45.967Z,0.70
2022-09-10T19:36:16.356Z,1.00
2022-09-10T19:38:44.351Z,0.83
2022-09-10T19:41:15.458Z,0.80
2022-09-10T19:43:43.184Z,0.90
2022-09-10T19:46:11.583Z,1.30
2022-09-10T19:48:39.883Z,1.13
2022-09-10T19:51:09.901Z,1.17
2022-09-10T19:53:38.520Z,1.17
2022-09-10T19:56:08.136Z,1.00
2022-09-10T19:58:37.892Z,1.13
2022-09-10T20:01:09.455Z,1.00
2022-09-10T20:03:37.889Z,0.80
2022-09-10T20:06:06.160Z,1.10
2022-09-10T20:08:35.085Z,1.07
2022-09-10T20:11:05.860Z,1.00
2022-09-10T20:13:33.903Z,1.23
2022-09-10T20:16:03.828Z,0.90
2022-09-10T20:18:34.008Z,0.80
2022-09-10T20:21:11.589Z,0.90
2022-09-10T20:23:39.774Z,0.73
2022-09-10T20:26:12.332Z,1.17
2022-09-10T20:28:41.076Z,0.90
2022-09-10T20:31:13.378Z,0.80
2022-09-10T20:33:43.266Z,0.83
2022-09-10T20:36:13.248Z,0.77
2022-09-10T20:38:41.019Z,0.60
2022-09-10T20:41:09.171Z,0.70
2022-09-10T20:43:37.455Z,0.50
2022-09-10T20:46:06.431Z,0.50
2022-09-10T20:48:35.545Z,0.50
2022-09-10T20:51:03.308Z,0.50
2022-09-10T20:53:35.629Z,0.60
2022-09-10T20:56:06.242Z,0.50
2022-09-10T20:58:35.278Z,0.40
2022-09-10T21:01:07.840Z,0.50
2022-09-10T21:03:37.301Z,0.70
2022-09-10T21:06:05.761Z,0.60
2022-09-10T21:08:33.571Z,0.60
2022-09-10T21:11:05.481Z,0.60
2022-09-10T21:13:34.167Z,0.70
2022-09-10T21:16:10.118Z,0.90
2022-09-10T21:18:41.000Z,0.70
2022-09-10T21:21:10.608Z,0.63
2022-09-10T21:23:43.469Z,0.80
2022-09-10T21:26:11.713Z,0.90
2022-09-10T21:28:39.829Z,1.00
2022-09-10T21:31:09.501Z,0.93
2022-09-10T21:33:39.409Z,0.70
2022-09-10T21:36:09.640Z,0.70
2022-09-10T21:38:37.892Z,0.90
2022-09-10T21:41:08.296Z,0.77
2022-09-10T21:43:36.573Z,0.90
2022-09-10T21:46:06.202Z,1.00
2022-09-10T21:48:35.894Z,1.30
2022-09-10T21:51:07.441Z,1.47
2022-09-10T21:53:36.088Z,1.60
2022-09-10T21:56:05.119Z,1.63
2022-09-10T21:58:35.936Z,1.67
2022-09-10T22:01:04.148Z,1.77
2022-09-10T22:03:33.540Z,1.70
2022-09-10T22:06:11.138Z,1.97
2022-09-10T22:08:42.639Z,2.10
2022-09-10T22:11:14.102Z,2.37
2022-09-10T22:13:42.203Z,2.20
2022-09-10T22:16:12.078Z,2.13
2022-09-10T22:18:41.292Z,2.00
2022-09-10T22:21:10.600Z,1.90
2022-09-10T22:23:39.862Z,2.17
2022-09-10T22:26:09.458Z,1.77
2022-09-10T22:28:38.234Z,2.43
2022-09-10T22:31:08.234Z,2.03
2022-09-10T22:33:37.558Z,2.50
2022-09-10T22:36:15.189Z,2.23
2022-09-10T22:38:43.876Z,3.27
2022-09-10T22:41:14.307Z,3.50
2022-09-10T22:43:42.665Z,3.67
2022-09-10T22:46:11.310Z,3.07
2022-09-10T22:48:40.949Z,3.13
2022-09-10T22:51:15.213Z,3.37
2022-09-10T22:53:45.732Z,2.97
2022-09-10T22:56:14.709Z,2.80
2022-09-10T22:58:42.877Z,3.10
2022-09-10T23:01:12.594Z,2.67
2022-09-10T23:03:41.137Z,2.70
2022-09-10T23:06:11.853Z,2.40
2022-09-10T23:08:40.626Z,2.67
2022-09-10T23:11:15.113Z,2.50
2022-09-10T23:13:43.795Z,2.47
2022-09-10T23:16:13.493Z,2.97
2022-09-10T23:18:41.925Z,2.50
2022-09-10T23:21:10.423Z,2.03
2022-09-10T23:23:38.196Z,1.97
2022-09-10T23:26:08.180Z,2.10
2022-09-10T23:28:38.051Z,2.30
2022-09-10T23:31:12.135Z,2.83
2022-09-10T23:33:40.675Z,2.30
2022-09-10T23:36:08.644Z,2.90
2022-09-10T23:38:37.036Z,1.83
2022-09-10T23:41:04.893Z,2.77
2022-09-10T23:43:32.744Z,1.87
2022-09-10T23:46:02.649Z,2.00
2022-09-10T23:48:30.850Z,2.20
2022-09-10T23:50:59.457Z,2.33
2022-09-10T23:53:27.949Z,2.03
2022-09-10T23:55:57.853Z,2.20
2022-09-10T23:58:26.121Z,2.50
